Chitose — JD2925 — position and weather

sailwx.info

Track history (hours):
 
Tides and Currents Weather Stations Pressure Air Temp Water Temp Dewpoint Dewpoint Depression Visibility Wind Speed Wind Dir Waves Ship Positions

Chitose

Last reported at 2017-Oct-23 06:01 UTC. Time now 2017-Oct-23 06:04 UTC.
Position N 35°27' E 139°39'.

Length 33 m; draft 3.8 m.

Type: Tug. MMSI: 431000953.

Date/timePositionNaut miles runAvg speedWind from/ knotsBaromVisibWave heightAir tempDewpointWater temp
2017-Oct-23 06:01N 35°27' E 139°39'0 0.0
2017-Oct-23 05:30N 35°27' E 139°39'0 0.0
2017-Oct-23 05:01N 35°27' E 139°39'0 0.0
2017-Oct-23 04:31N 35°27' E 139°39'0 0.0
2017-Oct-23 04:00N 35°27' E 139°39'0 0.0
2017-Oct-23 03:31N 35°27' E 139°39'0 0.0
2017-Oct-23 03:01N 35°27' E 139°39'0 0.0
2017-Oct-23 02:31N 35°27' E 139°39'0 0.0
2017-Oct-23 02:01N 35°27' E 139°39'0 0.0
2017-Oct-23 01:31N 35°27' E 139°39'0 0.0
2017-Oct-23 01:01N 35°27' E 139°39'0 0.0
2017-Oct-23 00:31N 35°27' E 139°39'0 0.0
2017-Oct-23 00:00N 35°27' E 139°39'0 0.0
2017-Oct-22 23:30N 35°27' E 139°39'0 0.0
2017-Oct-22 23:00N 35°27' E 139°39'0 0.0
2017-Oct-22 22:31N 35°27' E 139°39'0 0.0
2017-Oct-22 22:00N 35°27' E 139°39'0 0.0
2017-Oct-22 21:31N 35°27' E 139°39'0 0.0
2017-Oct-22 21:00N 35°27' E 139°39'0 0.0
2017-Oct-22 20:31N 35°27' E 139°39'0 0.0
2017-Oct-22 20:01N 35°27' E 139°39'0 0.0
2017-Oct-22 19:31N 35°27' E 139°39'0 0.0
2017-Oct-22 19:01N 35°27' E 139°39'0 0.0
2017-Oct-22 18:30N 35°27' E 139°39'0 0.0
2017-Oct-22 18:01N 35°27' E 139°39'0 0.0
2017-Oct-22 17:31N 35°27' E 139°39'0 0.0
2017-Oct-22 17:01N 35°27' E 139°39'0 0.0
2017-Oct-22 16:31N 35°27' E 139°39'0 0.0
2017-Oct-22 16:00N 35°27' E 139°39'0 0.0
2017-Oct-22 15:31N 35°27' E 139°39'0 0.0
2017-Oct-22 15:01N 35°27' E 139°39'0 0.0
2017-Oct-22 14:31N 35°27' E 139°39'0 0.0
2017-Oct-22 14:00N 35°27' E 139°39'0 0.0
2017-Oct-22 13:30N 35°27' E 139°39'0 0.0
2017-Oct-22 13:00N 35°27' E 139°39'0 0.0
2017-Oct-22 12:31N 35°27' E 139°39'0 0.0
2017-Oct-22 12:01N 35°27' E 139°39'0 0.0
2017-Oct-22 11:31N 35°27' E 139°39'0 0.0
2017-Oct-22 11:01N 35°27' E 139°39'0 0.0
2017-Oct-22 10:31N 35°27' E 139°39'0 0.0
2017-Oct-22 10:01N 35°27' E 139°39'0 0.0
2017-Oct-22 09:31N 35°27' E 139°39'0 0.0
2017-Oct-22 09:01N 35°27' E 139°39'0 0.0
2017-Oct-22 08:30N 35°27' E 139°39'0 0.0
2017-Oct-22 08:01N 35°27' E 139°39'0 0.0
2017-Oct-22 07:31N 35°27' E 139°39'0 0.0
2017-Oct-22 07:01N 35°27' E 139°39'0 0.0
2017-Oct-22 06:30N 35°27' E 139°39'0 0.0
2017-Oct-22 06:00N 35°27' E 139°39'0 0.0
2017-Oct-22 05:31N 35°27' E 139°39'1 1.6
2017-Oct-22 05:00N 35°28' E 139°40'2 4.9
2017-Oct-22 04:30N 35°28' E 139°42'0 0.3
2017-Oct-22 04:00N 35°28' E 139°43'2 3.5
2017-Oct-22 03:30N 35°28' E 139°40'2 3.4
2017-Oct-22 03:01N 35°27' E 139°39'0 0.0
2017-Oct-22 02:30N 35°27' E 139°39'0 0.0
2017-Oct-22 02:00N 35°27' E 139°39'0 0.0
2017-Oct-22 01:30N 35°27' E 139°39'0 0.0
2017-Oct-22 01:01N 35°27' E 139°39'0 0.0
2017-Oct-22 00:30N 35°27' E 139°39'0 0.0
2017-Oct-22 00:00N 35°27' E 139°39'0 0.0
2017-Oct-21 23:30N 35°27' E 139°39'0 0.5
2017-Oct-21 23:01N 35°28' E 139°39'1 2.1
2017-Oct-21 22:30N 35°29' E 139°39'1 1.8
2017-Oct-21 22:00N 35°28' E 139°40'2 4.8
2017-Oct-21 21:31N 35°27' E 139°42'1 1.5
2017-Oct-21 21:00N 35°26' E 139°42'3 6.1
2017-Oct-21 20:30N 35°27' E 139°39'0 0.0
2017-Oct-21 20:00N 35°27' E 139°39'0 0.0
2017-Oct-21 09:43N 35°27' E 139°39'2 7.4
2017-Oct-21 09:31N 35°27' E 139°41'1 2.4
2017-Oct-21 09:00N 35°28' E 139°42'0 0.7
2017-Oct-21 08:30N 35°28' E 139°41'1 1.1
2017-Oct-21 08:00N 35°28' E 139°42'0 0.1
2017-Oct-21 07:30N 35°28' E 139°42'0 0.0
2017-Oct-21 07:00N 35°28' E 139°42'0 0.0
2017-Oct-21 06:31N 35°28' E 139°42'3 5.0
2017-Oct-21 06:01N 35°30' E 139°44'2 4.6
2017-Oct-21 05:31N 35°31' E 139°46'2 4.7
2017-Oct-21 05:00N 35°30' E 139°44'3 5.7
2017-Oct-21 04:30N 35°27' E 139°44'4 7.9
2017-Oct-21 04:01N 35°27' E 139°40'0 0.4
2017-Oct-21 03:31N 35°27' E 139°39'1 1.4
2017-Oct-21 03:01N 35°27' E 139°39'0 0.0
2017-Oct-21 02:31N 35°27' E 139°39'0 0.0
2017-Oct-21 02:01N 35°27' E 139°39'0 0.0
2017-Oct-21 01:31N 35°27' E 139°39'0 0.0
2017-Oct-21 01:00N 35°27' E 139°39'0 0.0
2017-Oct-21 00:31N 35°27' E 139°39'0 0.0
2017-Oct-21 00:00N 35°27' E 139°39'0 0.0
2017-Oct-20 23:30N 35°27' E 139°39'0 0.0
2017-Oct-20 23:01N 35°27' E 139°39'0 0.0
2017-Oct-19 23:46N 35°27' E 139°39'2 8.7
2017-Oct-19 23:30N 35°27' E 139°41'3 5.0
2017-Oct-19 23:00N 35°24' E 139°41'0 0.2
2017-Oct-19 22:30N 35°24' E 139°41'1 3.0
2017-Oct-19 22:00N 35°23' E 139°41'0 0.2
2017-Oct-19 21:30N 35°23' E 139°41'1 2.8
2017-Oct-19 21:00N 35°24' E 139°41'0 0.3
2017-Oct-19 20:30N 35°24' E 139°41'0 0.1
2017-Oct-19 20:00N 35°24' E 139°41'1 2.1
2017-Oct-19 19:30N 35°23' E 139°40'0 0.0
2017-Oct-19 19:00N 35°23' E 139°40'0 0.0
2017-Oct-19 18:30N 35°23' E 139°40'0 0.0
2017-Oct-19 18:00N 35°23' E 139°40'0 0.0
2017-Oct-19 17:30N 35°23' E 139°40'0 0.0
2017-Oct-19 17:00N 35°23' E 139°40'1 2.1
2017-Oct-19 16:30N 35°24' E 139°41'1 2.2
2017-Oct-19 16:00N 35°23' E 139°40'0 0.0
2017-Oct-19 15:30N 35°23' E 139°40'0 0.0
2017-Oct-19 15:00N 35°23' E 139°40'1 2.6
2017-Oct-19 14:30N 35°24' E 139°42'3 5.3
2017-Oct-19 14:00N 35°26' E 139°41'2 3.3
2017-Oct-19 13:30N 35°26' E 139°43'1 2.2
2017-Oct-19 13:00N 35°26' E 139°42'0 0.0
2017-Oct-19 12:30N 35°26' E 139°42'0 0.0
2017-Oct-19 12:00N 35°26' E 139°42'0 0.0
2017-Oct-19 11:30N 35°26' E 139°42'0 0.0
2017-Oct-19 11:00N 35°26' E 139°42'0 0.0
2017-Oct-19 10:30N 35°26' E 139°42'2 3.9
2017-Oct-19 10:00N 35°24' E 139°41'1 1.9
2017-Oct-19 09:30N 35°23' E 139°41'3 5.6
2017-Oct-19 09:00N 35°26' E 139°42'0 0.0
2017-Oct-19 08:30N 35°26' E 139°42'1 1.9
2017-Oct-19 08:01N 35°27' E 139°41'0 0.7
2017-Oct-19 07:30N 35°26' E 139°41'2 4.2
2017-Oct-19 07:00N 35°27' E 139°39'0 0.0
2017-Oct-19 06:30N 35°27' E 139°39'0 0.0
2017-Oct-19 06:00N 35°27' E 139°39'0 0.0
2017-Oct-19 05:30N 35°27' E 139°39'0 0.0
2017-Oct-19 05:00N 35°27' E 139°39'0 0.0
2017-Oct-19 04:30N 35°27' E 139°39'0 0.0
2017-Oct-19 04:00N 35°27' E 139°39'0 0.0
2017-Oct-19 03:30N 35°27' E 139°39'0 0.0
2017-Oct-19 03:00N 35°27' E 139°39'0 0.0
2017-Oct-19 02:30N 35°27' E 139°39'0 0.0
2017-Oct-19 02:00N 35°27' E 139°39'0 0.0
2017-Oct-19 01:30N 35°27' E 139°39'0 0.0
2017-Oct-19 01:00N 35°27' E 139°39'0 0.0
2017-Oct-19 00:30N 35°27' E 139°39'0 0.0
2017-Oct-19 00:00N 35°27' E 139°39'0 0.0
2017-Oct-18 23:30N 35°27' E 139°39'0 0.0
2017-Oct-18 23:00N 35°27' E 139°39'0 0.0
2017-Oct-18 22:30N 35°27' E 139°39'0 0.0
2017-Oct-18 07:11N 35°27' E 139°39'0 0.0
2017-Oct-18 07:00N 35°27' E 139°39'0 0.0
2017-Oct-18 06:30N 35°27' E 139°39'0 0.0
2017-Oct-18 06:00N 35°27' E 139°39'0 0.0
2017-Oct-18 05:30N 35°27' E 139°39'2 4.2
2017-Oct-18 05:00N 35°27' E 139°41'0 0.2
2017-Oct-18 04:30N 35°26' E 139°41'1 2.7
2017-Oct-18 04:00N 35°27' E 139°39'0 0.0
2017-Oct-18 03:30N 35°27' E 139°39'0 0.0
2017-Oct-18 03:00N 35°27' E 139°39'0 0.0
2017-Oct-18 02:30N 35°27' E 139°39'2 3.6
2017-Oct-18 02:00N 35°27' E 139°42'1 1.4
2017-Oct-18 01:30N 35°27' E 139°41'2 3.9
2017-Oct-18 01:00N 35°27' E 139°39'0 0.2
2017-Oct-18 00:30N 35°27' E 139°39'0 0.0
2017-Oct-18 00:00N 35°27' E 139°39'0 0.0
2017-Oct-17 23:30N 35°27' E 139°39'0 0.0
2017-Oct-17 23:00N 35°27' E 139°39'0 0.0
2017-Oct-17 22:31N 35°27' E 139°39'0 0.0
2017-Oct-16 23:27N 35°27' E 139°39'3 5.8
2017-Oct-16 23:01N 35°28' E 139°42'1 1.7
2017-Oct-16 22:30N 35°27' E 139°43'0 0.8
2017-Oct-16 22:01N 35°27' E 139°43'1 2.0
2017-Oct-16 21:30N 35°27' E 139°42'0 0.0
2017-Oct-16 21:00N 35°27' E 139°42'0 0.1
2017-Oct-16 20:30N 35°27' E 139°42'1 2.7
2017-Oct-16 20:00N 35°26' E 139°41'0 0.0
2017-Oct-16 19:31N 35°26' E 139°41'2 4.2
2017-Oct-16 19:00N 35°27' E 139°39'0 0.0
2017-Oct-16 18:30N 35°27' E 139°39'0 0.0
2017-Oct-16 18:00N 35°27' E 139°39'0 0.0
2017-Oct-16 17:30N 35°27' E 139°39'0 0.0
2017-Oct-16 17:00N 35°27' E 139°39'0 0.0
2017-Oct-16 16:30N 35°27' E 139°39'0 0.0
2017-Oct-16 16:00N 35°27' E 139°39'0 0.0
2017-Oct-16 15:30N 35°27' E 139°39'0 0.0
2017-Oct-16 15:00N 35°27' E 139°39'0 0.0
2017-Oct-16 14:00N 35°27' E 139°39'2 4.2
2017-Oct-16 13:30N 35°26' E 139°41'1 1.5
2017-Oct-16 13:01N 35°27' E 139°41'0 0.8
2017-Oct-16 12:30N 35°26' E 139°42'3 5.2
2017-Oct-16 12:00N 35°27' E 139°39'0 0.0
2017-Oct-16 11:30N 35°27' E 139°39'0 0.0
2017-Oct-16 11:01N 35°27' E 139°39'0 0.0
2017-Oct-16 10:30N 35°27' E 139°39'0 0.0
2017-Oct-16 10:00N 35°27' E 139°39'0 0.0
2017-Oct-16 09:30N 35°27' E 139°39'0 0.0
2017-Oct-16 09:00N 35°27' E 139°39'0 0.0
2017-Oct-16 07:11N 35°27' E 139°39'0 0.0
2017-Oct-16 07:00N 35°27' E 139°39'0 0.0
2017-Oct-16 06:30N 35°27' E 139°39'0 0.0
2017-Oct-16 06:00N 35°27' E 139°39'0 0.0
2017-Oct-16 05:30N 35°27' E 139°39'0 0.0
2017-Oct-16 05:00N 35°27' E 139°39'0 0.8
2017-Oct-16 04:30N 35°27' E 139°39'3 5.2
2017-Oct-16 04:01N 35°28' E 139°42'0 0.3
2017-Oct-16 03:30N 35°28' E 139°42'0 0.5
2017-Oct-16 03:00N 35°28' E 139°42'0 0.0
2017-Oct-16 02:30N 35°28' E 139°42'0 0.0
2017-Oct-16 02:00N 35°28' E 139°42'2 3.8
2017-Oct-16 01:30N 35°29' E 139°43'0 0.3
2017-Oct-16 01:00N 35°29' E 139°43'3 5.2
2017-Oct-16 00:30N 35°27' E 139°43'1 2.1
2017-Oct-15 23:57N 35°26' E 139°44'4 9.5
2017-Oct-15 23:31N 35°27' E 139°40'0 0.1
2017-Oct-15 23:00N 35°27' E 139°39'0 0.0
2017-Oct-15 22:30N 35°27' E 139°39'0 0.1
2017-Oct-15 22:00N 35°27' E 139°39'2 4.0
2017-Oct-15 21:30N 35°26' E 139°42'3 5.4
2017-Oct-15 21:00N 35°27' E 139°39'0 0.0
2017-Oct-15 20:30N 35°27' E 139°39'0 0.0
2017-Oct-15 20:00N 35°27' E 139°39'0 0.0
2017-Oct-14 07:10N 35°27' E 139°39'0 0.0
2017-Oct-14 07:00N 35°27' E 139°39'0 0.0
2017-Oct-14 06:30N 35°27' E 139°39'0 0.0
2017-Oct-14 06:01N 35°27' E 139°39'0 0.0
2017-Oct-14 05:30N 35°27' E 139°39'1 1.5
2017-Oct-14 05:01N 35°27' E 139°39'1 2.0
2017-Oct-14 04:30N 35°27' E 139°41'1 2.1
2017-Oct-14 04:00N 35°28' E 139°40'1 1.0
2017-Oct-14 03:30N 35°28' E 139°40'0 0.0
2017-Oct-14 03:00N 35°28' E 139°40'0 0.0
2017-Oct-14 02:30N 35°28' E 139°40'0 0.0
2017-Oct-14 02:00N 35°28' E 139°40'0 0.0
2017-Oct-14 01:31N 35°28' E 139°40'1 1.0
2017-Oct-14 01:00N 35°28' E 139°40'1 2.1
2017-Oct-14 00:30N 35°27' E 139°41'1 2.9
2017-Oct-14 00:00N 35°26' E 139°42'3 5.9
2017-Oct-13 23:31N 35°27' E 139°39'0 0.0
2017-Oct-13 23:00N 35°27' E 139°39'0 0.0
2017-Oct-13 22:30N 35°27' E 139°39'0 0.0
2017-Oct-13 22:00N 35°27' E 139°39'0 0.0
2017-Oct-13 21:30N 35°27' E 139°39'0 0.0
2017-Oct-13 21:00N 35°27' E 139°39'0 0.0
2017-Oct-13 20:30N 35°27' E 139°39'0 0.0
2017-Oct-13 20:00N 35°27' E 139°39'0 0.0
2017-Oct-13 06:12N 35°27' E 139°39'  
Track history (hours):
 
Tides and Currents Weather Stations Pressure Air Temp Water Temp Dewpoint Dewpoint Depression Visibility Wind Speed Wind Dir Waves Ship Positions

Chitose

Last reported at 2017-Oct-23 06:01 UTC. Time now 2017-Oct-23 06:04 UTC.
Position N 35°27' E 139°39'.

Length 33 m; draft 3.8 m.

Type: Tug. MMSI: 431000953.

Date/timePositionNaut miles runAvg speedWind from/ knotsBaromVisibWave heightAir tempDewpointWater temp
2017-Oct-23 06:01N 35°27' E 139°39'0 0.0
2017-Oct-23 05:30N 35°27' E 139°39'0 0.0
2017-Oct-23 05:01N 35°27' E 139°39'0 0.0
2017-Oct-23 04:31N 35°27' E 139°39'0 0.0
2017-Oct-23 04:00N 35°27' E 139°39'0 0.0
2017-Oct-23 03:31N 35°27' E 139°39'0 0.0
2017-Oct-23 03:01N 35°27' E 139°39'0 0.0
2017-Oct-23 02:31N 35°27' E 139°39'0 0.0
2017-Oct-23 02:01N 35°27' E 139°39'0 0.0
2017-Oct-23 01:31N 35°27' E 139°39'0 0.0
2017-Oct-23 01:01N 35°27' E 139°39'0 0.0
2017-Oct-23 00:31N 35°27' E 139°39'0 0.0
2017-Oct-23 00:00N 35°27' E 139°39'0 0.0
2017-Oct-22 23:30N 35°27' E 139°39'0 0.0
2017-Oct-22 23:00N 35°27' E 139°39'0 0.0
2017-Oct-22 22:31N 35°27' E 139°39'0 0.0
2017-Oct-22 22:00N 35°27' E 139°39'0 0.0
2017-Oct-22 21:31N 35°27' E 139°39'0 0.0
2017-Oct-22 21:00N 35°27' E 139°39'0 0.0
2017-Oct-22 20:31N 35°27' E 139°39'0 0.0
2017-Oct-22 20:01N 35°27' E 139°39'0 0.0
2017-Oct-22 19:31N 35°27' E 139°39'0 0.0
2017-Oct-22 19:01N 35°27' E 139°39'0 0.0
2017-Oct-22 18:30N 35°27' E 139°39'0 0.0
2017-Oct-22 18:01N 35°27' E 139°39'0 0.0
2017-Oct-22 17:31N 35°27' E 139°39'0 0.0
2017-Oct-22 17:01N 35°27' E 139°39'0 0.0
2017-Oct-22 16:31N 35°27' E 139°39'0 0.0
2017-Oct-22 16:00N 35°27' E 139°39'0 0.0
2017-Oct-22 15:31N 35°27' E 139°39'0 0.0
2017-Oct-22 15:01N 35°27' E 139°39'0 0.0
2017-Oct-22 14:31N 35°27' E 139°39'0 0.0
2017-Oct-22 14:00N 35°27' E 139°39'0 0.0
2017-Oct-22 13:30N 35°27' E 139°39'0 0.0
2017-Oct-22 13:00N 35°27' E 139°39'0 0.0
2017-Oct-22 12:31N 35°27' E 139°39'0 0.0
2017-Oct-22 12:01N 35°27' E 139°39'0 0.0
2017-Oct-22 11:31N 35°27' E 139°39'0 0.0
2017-Oct-22 11:01N 35°27' E 139°39'0 0.0
2017-Oct-22 10:31N 35°27' E 139°39'0 0.0
2017-Oct-22 10:01N 35°27' E 139°39'0 0.0
2017-Oct-22 09:31N 35°27' E 139°39'0 0.0
2017-Oct-22 09:01N 35°27' E 139°39'0 0.0
2017-Oct-22 08:30N 35°27' E 139°39'0 0.0
2017-Oct-22 08:01N 35°27' E 139°39'0 0.0
2017-Oct-22 07:31N 35°27' E 139°39'0 0.0
2017-Oct-22 07:01N 35°27' E 139°39'0 0.0
2017-Oct-22 06:30N 35°27' E 139°39'0 0.0
2017-Oct-22 06:00N 35°27' E 139°39'0 0.0
2017-Oct-22 05:31N 35°27' E 139°39'1 1.6
2017-Oct-22 05:00N 35°28' E 139°40'2 4.9
2017-Oct-22 04:30N 35°28' E 139°42'0 0.3
2017-Oct-22 04:00N 35°28' E 139°43'2 3.5
2017-Oct-22 03:30N 35°28' E 139°40'2 3.4
2017-Oct-22 03:01N 35°27' E 139°39'0 0.0
2017-Oct-22 02:30N 35°27' E 139°39'0 0.0
2017-Oct-22 02:00N 35°27' E 139°39'0 0.0
2017-Oct-22 01:30N 35°27' E 139°39'0 0.0
2017-Oct-22 01:01N 35°27' E 139°39'0 0.0
2017-Oct-22 00:30N 35°27' E 139°39'0 0.0
2017-Oct-22 00:00N 35°27' E 139°39'0 0.0
2017-Oct-21 23:30N 35°27' E 139°39'0 0.5
2017-Oct-21 23:01N 35°28' E 139°39'1 2.1
2017-Oct-21 22:30N 35°29' E 139°39'1 1.8
2017-Oct-21 22:00N 35°28' E 139°40'2 4.8
2017-Oct-21 21:31N 35°27' E 139°42'1 1.5
2017-Oct-21 21:00N 35°26' E 139°42'3 6.1
2017-Oct-21 20:30N 35°27' E 139°39'0 0.0
2017-Oct-21 20:00N 35°27' E 139°39'0 0.0
2017-Oct-21 09:43N 35°27' E 139°39'2 7.4
2017-Oct-21 09:31N 35°27' E 139°41'1 2.4
2017-Oct-21 09:00N 35°28' E 139°42'0 0.7
2017-Oct-21 08:30N 35°28' E 139°41'1 1.1
2017-Oct-21 08:00N 35°28' E 139°42'0 0.1
2017-Oct-21 07:30N 35°28' E 139°42'0 0.0
2017-Oct-21 07:00N 35°28' E 139°42'0 0.0
2017-Oct-21 06:31N 35°28' E 139°42'3 5.0
2017-Oct-21 06:01N 35°30' E 139°44'2 4.6
2017-Oct-21 05:31N 35°31' E 139°46'2 4.7
2017-Oct-21 05:00N 35°30' E 139°44'3 5.7
2017-Oct-21 04:30N 35°27' E 139°44'4 7.9
2017-Oct-21 04:01N 35°27' E 139°40'0 0.4
2017-Oct-21 03:31N 35°27' E 139°39'1 1.4
2017-Oct-21 03:01N 35°27' E 139°39'0 0.0
2017-Oct-21 02:31N 35°27' E 139°39'0 0.0
2017-Oct-21 02:01N 35°27' E 139°39'0 0.0
2017-Oct-21 01:31N 35°27' E 139°39'0 0.0
2017-Oct-21 01:00N 35°27' E 139°39'0 0.0
2017-Oct-21 00:31N 35°27' E 139°39'0 0.0
2017-Oct-21 00:00N 35°27' E 139°39'0 0.0
2017-Oct-20 23:30N 35°27' E 139°39'0 0.0
2017-Oct-20 23:01N 35°27' E 139°39'0 0.0
2017-Oct-19 23:46N 35°27' E 139°39'2 8.7
2017-Oct-19 23:30N 35°27' E 139°41'3 5.0
2017-Oct-19 23:00N 35°24' E 139°41'0 0.2
2017-Oct-19 22:30N 35°24' E 139°41'1 3.0
2017-Oct-19 22:00N 35°23' E 139°41'0 0.2
2017-Oct-19 21:30N 35°23' E 139°41'1 2.8
2017-Oct-19 21:00N 35°24' E 139°41'0 0.3
2017-Oct-19 20:30N 35°24' E 139°41'0 0.1
2017-Oct-19 20:00N 35°24' E 139°41'1 2.1
2017-Oct-19 19:30N 35°23' E 139°40'0 0.0
2017-Oct-19 19:00N 35°23' E 139°40'0 0.0
2017-Oct-19 18:30N 35°23' E 139°40'0 0.0
2017-Oct-19 18:00N 35°23' E 139°40'0 0.0
2017-Oct-19 17:30N 35°23' E 139°40'0 0.0
2017-Oct-19 17:00N 35°23' E 139°40'1 2.1
2017-Oct-19 16:30N 35°24' E 139°41'1 2.2
2017-Oct-19 16:00N 35°23' E 139°40'0 0.0
2017-Oct-19 15:30N 35°23' E 139°40'0 0.0
2017-Oct-19 15:00N 35°23' E 139°40'1 2.6
2017-Oct-19 14:30N 35°24' E 139°42'3 5.3
2017-Oct-19 14:00N 35°26' E 139°41'2 3.3
2017-Oct-19 13:30N 35°26' E 139°43'1 2.2
2017-Oct-19 13:00N 35°26' E 139°42'0 0.0
2017-Oct-19 12:30N 35°26' E 139°42'0 0.0
2017-Oct-19 12:00N 35°26' E 139°42'0 0.0
2017-Oct-19 11:30N 35°26' E 139°42'0 0.0
2017-Oct-19 11:00N 35°26' E 139°42'0 0.0
2017-Oct-19 10:30N 35°26' E 139°42'2 3.9
2017-Oct-19 10:00N 35°24' E 139°41'1 1.9
2017-Oct-19 09:30N 35°23' E 139°41'3 5.6
2017-Oct-19 09:00N 35°26' E 139°42'0 0.0
2017-Oct-19 08:30N 35°26' E 139°42'1 1.9
2017-Oct-19 08:01N 35°27' E 139°41'0 0.7
2017-Oct-19 07:30N 35°26' E 139°41'2 4.2
2017-Oct-19 07:00N 35°27' E 139°39'0 0.0
2017-Oct-19 06:30N 35°27' E 139°39'0 0.0
2017-Oct-19 06:00N 35°27' E 139°39'0 0.0
2017-Oct-19 05:30N 35°27' E 139°39'0 0.0
2017-Oct-19 05:00N 35°27' E 139°39'0 0.0
2017-Oct-19 04:30N 35°27' E 139°39'0 0.0
2017-Oct-19 04:00N 35°27' E 139°39'0 0.0
2017-Oct-19 03:30N 35°27' E 139°39'0 0.0
2017-Oct-19 03:00N 35°27' E 139°39'0 0.0
2017-Oct-19 02:30N 35°27' E 139°39'0 0.0
2017-Oct-19 02:00N 35°27' E 139°39'0 0.0
2017-Oct-19 01:30N 35°27' E 139°39'0 0.0
2017-Oct-19 01:00N 35°27' E 139°39'0 0.0
2017-Oct-19 00:30N 35°27' E 139°39'0 0.0
2017-Oct-19 00:00N 35°27' E 139°39'0 0.0
2017-Oct-18 23:30N 35°27' E 139°39'0 0.0
2017-Oct-18 23:00N 35°27' E 139°39'0 0.0
2017-Oct-18 22:30N 35°27' E 139°39'0 0.0
2017-Oct-18 07:11N 35°27' E 139°39'0 0.0
2017-Oct-18 07:00N 35°27' E 139°39'0 0.0
2017-Oct-18 06:30N 35°27' E 139°39'0 0.0
2017-Oct-18 06:00N 35°27' E 139°39'0 0.0
2017-Oct-18 05:30N 35°27' E 139°39'2 4.2
2017-Oct-18 05:00N 35°27' E 139°41'0 0.2
2017-Oct-18 04:30N 35°26' E 139°41'1 2.7
2017-Oct-18 04:00N 35°27' E 139°39'0 0.0
2017-Oct-18 03:30N 35°27' E 139°39'0 0.0
2017-Oct-18 03:00N 35°27' E 139°39'0 0.0
2017-Oct-18 02:30N 35°27' E 139°39'2 3.6
2017-Oct-18 02:00N 35°27' E 139°42'1 1.4
2017-Oct-18 01:30N 35°27' E 139°41'2 3.9
2017-Oct-18 01:00N 35°27' E 139°39'0 0.2
2017-Oct-18 00:30N 35°27' E 139°39'0 0.0
2017-Oct-18 00:00N 35°27' E 139°39'0 0.0
2017-Oct-17 23:30N 35°27' E 139°39'0 0.0
2017-Oct-17 23:00N 35°27' E 139°39'0 0.0
2017-Oct-17 22:31N 35°27' E 139°39'0 0.0
2017-Oct-16 23:27N 35°27' E 139°39'3 5.8
2017-Oct-16 23:01N 35°28' E 139°42'1 1.7
2017-Oct-16 22:30N 35°27' E 139°43'0 0.8
2017-Oct-16 22:01N 35°27' E 139°43'1 2.0
2017-Oct-16 21:30N 35°27' E 139°42'0 0.0
2017-Oct-16 21:00N 35°27' E 139°42'0 0.1
2017-Oct-16 20:30N 35°27' E 139°42'1 2.7
2017-Oct-16 20:00N 35°26' E 139°41'0 0.0
2017-Oct-16 19:31N 35°26' E 139°41'2 4.2
2017-Oct-16 19:00N 35°27' E 139°39'0 0.0
2017-Oct-16 18:30N 35°27' E 139°39'0 0.0
2017-Oct-16 18:00N 35°27' E 139°39'0 0.0
2017-Oct-16 17:30N 35°27' E 139°39'0 0.0
2017-Oct-16 17:00N 35°27' E 139°39'0 0.0
2017-Oct-16 16:30N 35°27' E 139°39'0 0.0
2017-Oct-16 16:00N 35°27' E 139°39'0 0.0
2017-Oct-16 15:30N 35°27' E 139°39'0 0.0
2017-Oct-16 15:00N 35°27' E 139°39'0 0.0
2017-Oct-16 14:00N 35°27' E 139°39'2 4.2
2017-Oct-16 13:30N 35°26' E 139°41'1 1.5
2017-Oct-16 13:01N 35°27' E 139°41'0 0.8
2017-Oct-16 12:30N 35°26' E 139°42'3 5.2
2017-Oct-16 12:00N 35°27' E 139°39'0 0.0
2017-Oct-16 11:30N 35°27' E 139°39'0 0.0
2017-Oct-16 11:01N 35°27' E 139°39'0 0.0
2017-Oct-16 10:30N 35°27' E 139°39'0 0.0
2017-Oct-16 10:00N 35°27' E 139°39'0 0.0
2017-Oct-16 09:30N 35°27' E 139°39'0 0.0
2017-Oct-16 09:00N 35°27' E 139°39'0 0.0
2017-Oct-16 07:11N 35°27' E 139°39'0 0.0
2017-Oct-16 07:00N 35°27' E 139°39'0 0.0
2017-Oct-16 06:30N 35°27' E 139°39'0 0.0
2017-Oct-16 06:00N 35°27' E 139°39'0 0.0
2017-Oct-16 05:30N 35°27' E 139°39'0 0.0
2017-Oct-16 05:00N 35°27' E 139°39'0 0.8
2017-Oct-16 04:30N 35°27' E 139°39'3 5.2
2017-Oct-16 04:01N 35°28' E 139°42'0 0.3
2017-Oct-16 03:30N 35°28' E 139°42'0 0.5
2017-Oct-16 03:00N 35°28' E 139°42'0 0.0
2017-Oct-16 02:30N 35°28' E 139°42'0 0.0
2017-Oct-16 02:00N 35°28' E 139°42'2 3.8
2017-Oct-16 01:30N 35°29' E 139°43'0 0.3
2017-Oct-16 01:00N 35°29' E 139°43'3 5.2
2017-Oct-16 00:30N 35°27' E 139°43'1 2.1
2017-Oct-15 23:57N 35°26' E 139°44'4 9.5
2017-Oct-15 23:31N 35°27' E 139°40'0 0.1
2017-Oct-15 23:00N 35°27' E 139°39'0 0.0
2017-Oct-15 22:30N 35°27' E 139°39'0 0.1
2017-Oct-15 22:00N 35°27' E 139°39'2 4.0
2017-Oct-15 21:30N 35°26' E 139°42'3 5.4
2017-Oct-15 21:00N 35°27' E 139°39'0 0.0
2017-Oct-15 20:30N 35°27' E 139°39'0 0.0
2017-Oct-15 20:00N 35°27' E 139°39'0 0.0
2017-Oct-14 07:10N 35°27' E 139°39'0 0.0
2017-Oct-14 07:00N 35°27' E 139°39'0 0.0
2017-Oct-14 06:30N 35°27' E 139°39'0 0.0
2017-Oct-14 06:01N 35°27' E 139°39'0 0.0
2017-Oct-14 05:30N 35°27' E 139°39'1 1.5
2017-Oct-14 05:01N 35°27' E 139°39'1 2.0
2017-Oct-14 04:30N 35°27' E 139°41'1 2.1
2017-Oct-14 04:00N 35°28' E 139°40'1 1.0
2017-Oct-14 03:30N 35°28' E 139°40'0 0.0
2017-Oct-14 03:00N 35°28' E 139°40'0 0.0
2017-Oct-14 02:30N 35°28' E 139°40'0 0.0
2017-Oct-14 02:00N 35°28' E 139°40'0 0.0
2017-Oct-14 01:31N 35°28' E 139°40'1 1.0
2017-Oct-14 01:00N 35°28' E 139°40'1 2.1
2017-Oct-14 00:30N 35°27' E 139°41'1 2.9
2017-Oct-14 00:00N 35°26' E 139°42'3 5.9
2017-Oct-13 23:31N 35°27' E 139°39'0 0.0
2017-Oct-13 23:00N 35°27' E 139°39'0 0.0
2017-Oct-13 22:30N 35°27' E 139°39'0 0.0
2017-Oct-13 22:00N 35°27' E 139°39'0 0.0
2017-Oct-13 21:30N 35°27' E 139°39'0 0.0
2017-Oct-13 21:00N 35°27' E 139°39'0 0.0
2017-Oct-13 20:30N 35°27' E 139°39'0 0.0
2017-Oct-13 20:00N 35°27' E 139°39'0 0.0
2017-Oct-13 06:12N 35°27' E 139°39'  

Dump ship's entire track history